createdAt,value
2017-03-08T06:12:41.506Z,91.61
2017-03-08T06:13:23.575Z,91.71
2017-03-08T06:14:04.351Z,91.52
2017-03-08T06:14:45.084Z,91.9
2017-03-08T06:15:25.875Z,91.9
2017-03-08T06:16:06.673Z,91.9
2017-03-08T06:16:47.382Z,92.19
2017-03-08T06:17:35.773Z,91.13
2017-03-08T06:18:16.602Z,91.22
2017-03-08T06:18:57.396Z,92.09
2017-03-08T06:19:38.218Z,91.52
2017-03-08T06:20:19.069Z,91.71
2017-03-08T06:20:59.895Z,91.52
2017-03-08T06:21:40.599Z,91.61
2017-03-08T06:22:21.341Z,92.09
2017-03-08T06:23:02.126Z,91.42
2017-03-08T06:23:42.863Z,91.13
2017-03-08T06:30:42.737Z,91.61
2017-03-08T06:31:23.494Z,91.71
2017-03-08T06:32:04.279Z,92.09
2017-03-08T06:32:44.997Z,91.61
2017-03-08T06:33:26.778Z,91.32
2017-03-08T07:18:18.275Z,90.07
2017-03-08T07:20:16.289Z,90.45
2017-03-08T07:20:59.192Z,90.17
2017-03-08T07:21:40.883Z,90.36
2017-03-08T07:22:21.777Z,90.36
2017-03-08T07:23:03.134Z,90.26
2017-03-08T07:23:43.249Z,90.26
2017-03-08T07:24:24.634Z,90.55
2017-03-08T07:25:05.128Z,90.36
2017-03-08T07:25:45.952Z,90.17
2017-03-08T07:26:26.733Z,90.07
2017-03-08T07:27:07.535Z,90.07
2017-03-08T07:27:48.958Z,89.59
2017-03-08T07:28:29.777Z,89.88
2017-03-08T07:29:10.521Z,89.5
2017-03-08T07:29:51.323Z,89.59
2017-03-08T07:30:32.062Z,89.5
2017-03-08T07:31:12.920Z,90.07
2017-03-08T07:31:53.694Z,89.69
2017-03-08T07:32:35.413Z,88.34
2017-03-08T07:33:16.155Z,87.29
2017-03-08T07:33:57.423Z,86.61
2017-03-08T07:34:39.536Z,85.84
2017-03-08T09:25:45.689Z,63.73
2017-03-08T09:26:26.482Z,63.34
2017-03-08T09:27:07.223Z,63.15
2017-03-08T09:27:47.944Z,63.64
2017-03-08T09:28:28.700Z,63.44
2017-03-08T10:43:26.653Z,63.02
2017-03-08T10:44:07.443Z,63.18
2017-03-08T10:44:48.194Z,62.25
2017-03-08T10:45:29.010Z,62.45
2017-03-08T10:46:09.776Z,62.35
2017-03-08T10:46:50.619Z,62.15
2017-03-08T10:47:31.379Z,62.25
2017-03-08T10:48:12.199Z,62.06
2017-03-08T10:48:52.959Z,61.1
2017-03-08T10:49:33.718Z,61.96
2017-03-08T10:50:14.510Z,60.8
2017-03-08T10:50:55.297Z,60.71
2017-03-08T10:51:36.018Z,59.27
2017-03-08T10:52:16.780Z,59.23
2017-03-08T10:52:57.567Z,59.36
2017-03-08T10:53:38.310Z,59.04
2017-03-08T10:54:19.207Z,57.98
2017-03-08T10:54:59.927Z,58.69
2017-03-08T10:55:40.668Z,59.17
2017-03-08T10:56:21.378Z,60.42
2017-03-08T10:57:02.131Z,59.17
2017-03-08T10:57:42.881Z,58.78
2017-03-08T10:58:23.624Z,57.34
2017-03-08T10:59:04.426Z,56.92
2017-03-08T10:59:45.161Z,57.5
2017-03-08T11:00:25.950Z,56.05
2017-03-08T11:01:06.682Z,57.02
2017-03-08T11:01:47.464Z,57.21
2017-03-08T11:02:28.167Z,56.05
2017-03-08T11:03:08.935Z,56.35
2017-03-08T11:03:49.752Z,57.21
2017-03-08T11:04:30.457Z,56.35
2017-03-08T11:05:11.354Z,56.92
2017-03-08T11:05:53.135Z,56.35
2017-03-08T11:06:33.905Z,56.63
2017-03-08T11:07:14.642Z,56.25
2017-03-08T11:07:55.390Z,56.54
2017-03-08T11:08:36.185Z,56.82
2017-03-08T11:09:16.888Z,56.15
2017-03-08T11:09:57.596Z,56.73
2017-03-08T11:10:38.303Z,57.02
2017-03-08T11:11:19.071Z,58.85
2017-03-08T11:11:59.784Z,57.79
2017-03-08T11:14:00.367Z,59.14
2017-03-08T11:14:41.199Z,59.17
2017-03-08T11:15:21.923Z,58.65
2017-03-08T11:16:02.684Z,58.08
2017-03-08T11:16:43.400Z,57.12
2017-03-08T11:17:24.149Z,56.92
2017-03-08T11:18:05.030Z,55.57
2017-03-08T11:18:45.827Z,56.15
2017-03-08T11:19:26.553Z,57.12
2017-03-08T11:20:07.415Z,55.87
2017-03-08T11:20:48.169Z,56.25
2017-03-08T11:21:28.908Z,55.57
2017-03-08T11:22:09.655Z,55.57
2017-03-08T11:22:50.430Z,55.87
2017-03-08T11:23:31.260Z,55.87
2017-03-08T11:24:12.037Z,57.12
2017-03-08T11:24:52.817Z,56.92
2017-03-08T11:25:33.492Z,57.69
2017-03-08T11:26:14.265Z,56.73
2017-03-08T11:26:55.085Z,57.89
2017-03-08T11:27:35.846Z,57.6
2017-03-08T11:28:16.520Z,57.21
2017-03-08T11:28:57.365Z,57.69
2017-03-08T11:29:38.172Z,57.69
2017-03-08T11:30:18.941Z,57.79
2017-03-08T11:30:59.685Z,57.5
2017-03-08T11:31:40.489Z,56.82
2017-03-08T11:32:21.206Z,56.25
2017-03-08T11:33:01.909Z,57.12
2017-03-08T11:33:42.693Z,56.35
2017-03-08T11:34:23.503Z,55.96
2017-03-08T11:35:04.307Z,56.05
2017-03-08T11:35:45.013Z,55.96
2017-03-08T11:36:25.836Z,56.63
2017-03-08T11:37:06.546Z,56.44
2017-03-08T11:37:47.319Z,56.35
2017-03-08T11:38:28.018Z,56.63
2017-03-08T11:39:08.768Z,56.54
2017-03-08T11:39:49.516Z,56.05
2017-03-08T11:40:30.229Z,55.87
2017-03-08T11:41:10.977Z,57.21
2017-03-08T11:41:51.716Z,57.69
2017-03-08T11:42:32.423Z,57.12
2017-03-08T11:43:13.204Z,57.5
2017-03-08T11:43:54.023Z,57.69
2017-03-08T11:44:34.737Z,57.5
2017-03-08T11:45:15.478Z,57.21
2017-03-08T11:45:56.310Z,57.4
2017-03-08T11:46:37.019Z,57.89
2017-03-08T11:47:18.657Z,57.89
2017-03-08T11:47:58.711Z,57.6
2017-03-08T11:48:39.497Z,57.4
2017-03-08T11:49:20.313Z,57.69
2017-03-08T11:50:01.060Z,57.89
2017-03-08T11:50:41.827Z,59.14
2017-03-08T11:51:22.651Z,58.08
2017-03-08T11:52:03.390Z,58.37
2017-03-08T11:52:44.215Z,58.65
2017-03-08T11:53:24.989Z,58.65
2017-03-08T11:54:05.867Z,58.85
2017-03-08T11:54:46.636Z,57.98
2017-03-08T11:55:27.399Z,57.69
2017-03-08T11:56:08.076Z,57.4
2017-03-08T11:56:48.796Z,58.08
2017-03-08T11:57:29.505Z,57.89
2017-03-08T11:58:10.350Z,58.85
2017-03-08T11:58:51.013Z,59.14
2017-03-08T11:59:31.789Z,58.65
2017-03-08T12:01:27.871Z,57.02
2017-03-08T12:02:08.618Z,57.79
2017-03-08T12:02:49.479Z,56.82
2017-03-08T12:03:30.234Z,57.89
2017-03-08T12:04:10.939Z,57.79
2017-03-08T12:04:51.680Z,58.56
2017-03-08T12:05:32.587Z,57.69
2017-03-08T12:06:13.904Z,57.5
2017-03-08T12:06:54.682Z,57.69
2017-03-08T12:07:35.455Z,58.08
2017-03-08T12:08:16.290Z,58.56
2017-03-08T12:08:57.070Z,58.27
2017-03-08T12:09:37.764Z,58.65
2017-03-08T12:10:18.560Z,60.3
2017-03-08T12:10:59.365Z,59.52
2017-03-08T12:11:40.162Z,59.33
2017-03-08T12:12:20.885Z,57.89
2017-03-08T12:13:01.693Z,57.12
2017-03-08T12:13:42.422Z,57.12
2017-03-08T12:14:23.967Z,57.69
2017-03-08T12:15:05.671Z,57.5
2017-03-08T12:15:46.433Z,57.6
2017-03-08T12:16:27.275Z,57.12
2017-03-08T12:17:08.819Z,57.02
2017-03-08T12:17:49.573Z,57.12
2017-03-08T12:18:30.402Z,57.02
2017-03-08T12:19:11.191Z,57.4
2017-03-08T12:19:51.972Z,57.12
2017-03-08T12:20:32.736Z,56.73
2017-03-08T12:21:13.448Z,55.87
2017-03-08T12:21:54.266Z,57.12
2017-03-08T12:22:35.034Z,56.54
2017-03-08T12:23:15.778Z,56.44
2017-03-08T12:23:56.554Z,56.05
2017-03-08T12:24:38.281Z,56.25
2017-03-08T12:25:18.992Z,56.05
2017-03-08T12:25:59.871Z,55.96
2017-03-08T12:26:40.573Z,55.74
2017-03-08T12:27:21.310Z,55.67
2017-03-08T12:28:02.097Z,56.51
2017-03-08T12:28:42.779Z,56.15
2017-03-08T12:29:23.513Z,56.92
2017-03-08T12:30:04.290Z,57.21
2017-03-08T12:30:51.805Z,57.4
2017-03-08T12:31:32.562Z,57.89
2017-03-08T12:32:13.310Z,56.92
2017-03-08T12:32:54.158Z,57.12
2017-03-08T12:33:35.016Z,56.15
2017-03-08T12:34:15.838Z,56.63
2017-03-08T12:34:56.537Z,57.02
2017-03-08T12:35:37.337Z,57.79
2017-03-08T12:36:18.082Z,56.82
2017-03-08T12:36:58.811Z,57.02
2017-03-08T12:37:39.573Z,55.87
2017-03-08T12:38:20.320Z,55.67
2017-03-08T12:39:01.099Z,55.16
2017-03-08T12:39:41.821Z,55.87
2017-03-08T12:40:22.615Z,56.35
2017-03-08T12:41:03.350Z,56.54
2017-03-08T12:41:44.103Z,56.05
2017-03-08T12:42:24.874Z,56.63
2017-03-08T12:43:05.599Z,56.15
2017-03-08T12:43:46.383Z,56.7
2017-03-08T12:44:27.167Z,55.57
2017-03-08T12:45:08.776Z,55.87
2017-03-08T12:45:48.649Z,55.96
2017-03-08T12:46:29.324Z,55.96
2017-03-08T12:47:10.048Z,55.96
2017-03-08T12:47:50.806Z,56.05
2017-03-08T12:48:31.532Z,55.77
2017-03-08T12:49:12.255Z,55.55
2017-03-08T12:49:53.008Z,55.74
2017-03-08T12:50:33.737Z,56.32
2017-03-08T12:51:14.561Z,56.7
2017-03-08T12:51:56.155Z,56.92
2017-03-08T12:52:36.928Z,56.63
2017-03-08T12:53:17.672Z,56.73
2017-03-08T12:53:58.414Z,56.8
2017-03-08T12:54:39.167Z,57.31
2017-03-08T12:55:19.951Z,57.4
2017-03-08T12:56:01.123Z,57.02
2017-03-08T12:56:43.519Z,57.6
2017-03-08T12:57:24.302Z,57.89
2017-03-08T12:58:05.145Z,57.57
2017-03-08T12:58:45.846Z,57.47
2017-03-08T12:59:26.685Z,56.05
2017-03-08T13:00:07.469Z,56.99
2017-03-08T13:00:48.253Z,57.21
2017-03-08T13:01:28.972Z,57.67
2017-03-08T13:02:09.699Z,57.21
2017-03-08T13:02:50.501Z,57.5
2017-03-08T13:03:31.256Z,57.76
2017-03-08T13:04:12.061Z,57.69
2017-03-08T13:04:52.839Z,57.09
2017-03-08T13:05:33.533Z,57.12
2017-03-08T13:06:14.954Z,57.4
2017-03-08T13:06:55.697Z,56.22
2017-03-08T13:07:36.520Z,56.25
2017-03-08T13:08:17.216Z,56.03
2017-03-08T13:08:57.971Z,56.7
2017-03-08T13:09:38.747Z,57.09
2017-03-08T13:10:20.277Z,56.73
2017-03-08T13:11:00.471Z,57.12
2017-03-08T13:11:41.237Z,57.18
2017-03-08T13:12:21.966Z,56.9
2017-03-08T13:13:02.849Z,57.6
2017-03-08T13:13:43.593Z,57.98
2017-03-08T13:14:24.349Z,57.12
2017-03-08T13:15:05.126Z,57.18
2017-03-08T13:15:45.953Z,56.8
2017-03-08T13:16:26.724Z,57.18
2017-03-08T13:17:07.399Z,56.7
2017-03-08T13:17:48.225Z,56.51
2017-03-08T13:18:28.926Z,55.74
2017-03-08T13:19:09.692Z,56.22
2017-03-08T13:19:50.553Z,56.32
2017-03-08T13:20:31.321Z,56.22
2017-03-08T13:21:12.205Z,56.51
2017-03-08T13:21:52.927Z,56.6
2017-03-08T13:22:33.785Z,56.51
2017-03-08T13:23:14.490Z,56.41
2017-03-08T13:23:55.218Z,56.51
2017-03-08T13:24:35.958Z,55.55
2017-03-08T13:25:16.691Z,55.83
2017-03-08T13:25:57.448Z,55.93
2017-03-08T13:26:38.206Z,55.74
2017-03-08T13:27:19.009Z,56.32
2017-03-08T13:27:59.852Z,55.74
2017-03-08T13:28:40.625Z,55.87
2017-03-08T13:29:21.388Z,56.41
2017-03-08T13:30:02.101Z,56.22
2017-03-08T13:30:42.891Z,56.41
2017-03-08T13:31:24.296Z,56.8
2017-03-08T13:32:04.365Z,56.12
2017-03-08T13:32:45.175Z,56.7
2017-03-08T13:33:25.908Z,56.51
2017-03-08T13:34:06.694Z,56.7
2017-03-08T13:34:47.340Z,56.32
2017-03-08T13:35:28.143Z,56.03
2017-03-08T13:36:08.915Z,56.51
2017-03-08T13:36:49.681Z,56.12
2017-03-08T13:37:30.529Z,55.45
2017-03-08T13:38:11.789Z,54.97
2017-03-08T13:38:52.011Z,54.87
2017-03-08T13:39:32.765Z,54.68
2017-03-08T13:40:14.290Z,54.97
2017-03-08T13:40:55.165Z,54.87
2017-03-08T13:41:35.932Z,55.65
2017-03-08T13:42:16.692Z,56.12
2017-03-08T13:42:57.479Z,55.55
2017-03-08T13:43:38.804Z,55.16
2017-03-08T13:45:29.093Z,54.87
2017-03-08T13:46:09.969Z,54.68
2017-03-08T13:46:50.698Z,54.49
2017-03-08T13:47:31.556Z,55.26
2017-03-08T13:48:12.251Z,55.16
2017-03-08T13:48:53.056Z,55.16
2017-03-08T13:49:33.733Z,55.55
2017-03-08T13:50:18.898Z,56.22
2017-03-08T13:50:59.409Z,56.51
2017-03-08T13:51:40.533Z,56.51
2017-03-08T13:52:21.288Z,55.65
2017-03-08T13:53:01.986Z,55.83
2017-03-08T13:53:43.364Z,55.83
2017-03-08T13:54:24.184Z,55.65
2017-03-08T13:55:04.973Z,55.74
2017-03-08T13:55:46.399Z,55.65
2017-03-08T13:56:26.441Z,55.83
2017-03-08T13:57:07.188Z,56.22
2017-03-08T13:57:47.900Z,56.12
2017-03-08T13:58:28.689Z,55.65
2017-03-08T13:59:09.539Z,56.03
2017-03-08T13:59:50.317Z,55.93
2017-03-08T14:00:31.073Z,56.22
2017-03-08T14:01:11.736Z,56.03
2017-03-08T14:01:52.589Z,55.83
2017-03-08T14:02:33.357Z,55.55
2017-03-08T14:03:14.090Z,56.51
2017-03-08T14:16:06.742Z,57.47
2017-03-08T14:16:48.988Z,58.05
2017-03-08T14:17:29.262Z,58.44
2017-03-08T14:18:10.038Z,58.15
2017-03-08T14:18:50.781Z,58.72
2017-03-08T14:19:31.595Z,58.63
2017-03-08T14:20:12.319Z,58.72
2017-03-08T14:20:53.021Z,59.11
2017-03-08T14:21:33.800Z,58.34
2017-03-08T14:22:14.680Z,59.2
2017-03-08T14:22:55.417Z,58.92
2017-03-08T14:23:36.142Z,59.2
2017-03-08T14:24:16.858Z,59.11
2017-03-08T14:24:57.695Z,59.11
2017-03-08T14:28:22.215Z,59.3
2017-03-08T14:29:02.969Z,59.4
2017-03-08T14:29:43.769Z,59.11
2017-03-08T14:30:24.508Z,59.2
2017-03-08T14:31:05.293Z,59.2
2017-03-08T14:31:46.023Z,59.11
2017-03-08T14:32:26.798Z,59.2
2017-03-08T14:33:07.746Z,59.11
2017-03-08T14:33:48.451Z,59.11
2017-03-08T14:34:29.649Z,59.01
2017-03-08T14:35:10.712Z,59.4
2017-03-08T14:35:51.495Z,59.49
2017-03-08T14:36:33.091Z,59.59
2017-03-08T14:37:13.817Z,59.4
2017-03-08T14:37:54.564Z,59.2
2017-03-08T14:38:35.289Z,59.59
2017-03-08T14:39:16.064Z,59.4
2017-03-08T14:39:56.774Z,59.2
2017-03-08T14:40:37.579Z,59.59
2017-03-08T14:41:18.333Z,59.49
2017-03-08T14:41:59.044Z,59.69
2017-03-08T14:42:39.801Z,59.2
2017-03-08T14:43:20.565Z,59.78
2017-03-08T14:44:01.332Z,59.2
2017-03-08T14:46:03.251Z,58.92
2017-03-08T14:46:43.969Z,59.11
2017-03-08T14:47:24.751Z,58.34
2017-03-08T14:48:05.443Z,58.92
2017-03-08T14:48:46.142Z,58.44
2017-03-08T14:49:26.890Z,59.11
2017-03-08T14:50:07.629Z,59.01
2017-03-08T14:50:48.850Z,59.37
2017-03-08T14:51:29.600Z,59.3
2017-03-08T14:52:10.297Z,59.2
2017-03-08T14:52:51.106Z,59.11
2017-03-08T14:53:31.942Z,59.01
2017-03-08T14:54:12.727Z,59.3
2017-03-08T14:54:53.543Z,59.2
2017-03-08T14:55:48.989Z,59.2
2017-03-08T14:56:29.915Z,59.2
2017-03-08T14:57:10.669Z,59.49
2017-03-08T14:57:51.350Z,60.27
2017-03-08T14:58:32.155Z,59.2
2017-03-08T14:59:12.855Z,59.69
2017-03-08T14:59:53.655Z,59.49
2017-03-08T15:00:34.492Z,60.36
2017-03-08T15:01:15.260Z,59.4
2017-03-08T15:01:56.040Z,59.78
2017-03-08T15:02:48.657Z,59.59
2017-03-08T15:03:44.397Z,59.2
2017-03-08T15:04:25.143Z,59.2
2017-03-08T15:05:06.039Z,58.98
2017-03-08T15:05:46.793Z,59.11
2017-03-08T15:06:42.055Z,59.4
2017-03-08T15:07:22.796Z,59.08
2017-03-08T15:08:03.577Z,59.59
2017-03-08T15:08:44.329Z,59.49
2017-03-08T15:09:25.163Z,59.08
2017-03-08T15:10:05.918Z,59.56
2017-03-08T15:10:46.648Z,59.37
2017-03-08T15:11:27.384Z,59.47
2017-03-08T15:12:08.078Z,59.69
2017-03-08T15:12:48.921Z,59.59
2017-03-08T15:13:29.730Z,59.85
2017-03-08T15:14:11.009Z,59.88
2017-03-08T15:14:51.229Z,59.66
2017-03-08T15:15:34.769Z,59.85
2017-03-08T15:16:15.555Z,59.88
2017-03-08T15:16:56.280Z,59.85
2017-03-08T15:17:39.499Z,59.08
2017-03-08T15:18:20.361Z,59.17
2017-03-08T15:19:01.092Z,59.78
2017-03-08T15:19:41.894Z,59.17
2017-03-08T15:20:22.583Z,59.27
2017-03-08T15:21:03.897Z,59.37
2017-03-08T15:21:44.683Z,59.17
2017-03-08T15:22:25.413Z,58.82
2017-03-08T15:23:06.105Z,59.27
2017-03-08T15:23:47.501Z,59.2
2017-03-08T15:24:27.826Z,59.08
2017-03-08T15:25:09.503Z,59.27
2017-03-08T15:25:49.354Z,59.56
2017-03-08T15:26:30.106Z,59.85
2017-03-08T15:27:11.546Z,60.24
2017-03-08T15:27:54.523Z,60.17
2017-03-08T15:28:37.087Z,60.04
2017-03-08T15:29:17.925Z,59.85
2017-03-08T15:29:59.498Z,60.24
2017-03-08T15:30:39.464Z,60.17
2017-03-08T15:31:21.007Z,59.49
2017-03-08T15:32:02.500Z,59.75
2017-03-08T15:48:18.445Z,60.24
2017-03-08T15:48:59.181Z,59.75
2017-03-08T15:49:39.864Z,59.47
2017-03-08T15:50:20.680Z,59.37
2017-03-08T15:51:01.470Z,59.59
2017-03-08T15:51:42.276Z,59.47
2017-03-08T15:52:23.016Z,59.56
2017-03-08T15:53:03.846Z,59.17
2017-03-08T15:53:44.584Z,59.75
2017-03-08T15:54:25.340Z,59.66
2017-03-08T15:55:06.059Z,59.08
2017-03-08T15:55:46.861Z,58.89
2017-03-08T15:56:27.649Z,59.08
2017-03-08T15:57:08.371Z,58.98
2017-03-08T15:57:49.140Z,59.27
2017-03-08T15:58:29.832Z,59.37
2017-03-08T15:59:10.564Z,59.08
2017-03-08T15:59:51.471Z,59.17
2017-03-08T16:00:32.171Z,59.17
2017-03-08T16:01:12.909Z,58.98
2017-03-08T16:01:53.665Z,58.98
2017-03-08T16:02:34.399Z,59.08
2017-03-08T16:03:15.114Z,59.08
2017-03-08T16:03:55.970Z,58.98
2017-03-08T16:04:36.689Z,59.08
2017-03-08T16:05:17.396Z,58.98
2017-03-08T16:05:58.164Z,59.37
2017-03-08T16:08:03.410Z,59.08
2017-03-08T16:09:53.361Z,59.37
2017-03-08T16:10:34.215Z,59.27
2017-03-08T16:11:15.536Z,59.47
2017-03-08T16:11:56.948Z,59.47
2017-03-08T16:12:36.996Z,59.37
2017-03-08T16:13:18.439Z,59.47
2017-03-08T16:13:58.484Z,59.47
2017-03-08T16:14:39.246Z,59.27
2017-03-08T16:15:20.032Z,59.17
2017-03-08T16:16:00.752Z,59.27
2017-03-08T16:16:42.442Z,59.17
2017-03-08T16:17:22.261Z,59.27
2017-03-08T16:18:02.999Z,58.98
2017-03-08T16:18:43.794Z,59.08
2017-03-08T16:19:24.567Z,58.89
2017-03-08T16:20:10.034Z,59.08
2017-03-08T16:20:54.821Z,59.08
2017-03-08T16:21:35.576Z,58.79
2017-03-08T16:22:16.310Z,58.89
2017-03-08T16:22:57.109Z,58.98
2017-03-08T16:23:37.820Z,58.98
2017-03-08T16:24:18.576Z,59.08
2017-03-08T16:24:59.299Z,59.08
2017-03-08T16:25:40.026Z,59.08
2017-03-08T16:26:20.788Z,58.98
2017-03-08T16:27:01.553Z,59.08
2017-03-08T16:27:42.289Z,58.98
2017-03-08T16:29:37.616Z,59.17
2017-03-08T16:30:18.319Z,58.6
2017-03-08T16:30:59.087Z,59.37
2017-03-08T16:31:39.840Z,58.98
2017-03-08T16:32:20.588Z,59.08
2017-03-08T16:33:01.368Z,58.98
2017-03-08T16:33:42.094Z,59.08
2017-03-08T16:34:22.866Z,58.89
2017-03-08T16:35:14.243Z,59.37
2017-03-08T16:35:54.976Z,59.17
2017-03-08T16:36:35.794Z,59.37
2017-03-08T16:37:16.577Z,59.17
2017-03-08T16:37:57.404Z,59.08
2017-03-08T16:38:38.217Z,59.37
2017-03-08T16:39:19.036Z,59.37
2017-03-08T16:39:59.760Z,59.27
2017-03-08T16:40:40.521Z,59.47
2017-03-08T16:41:21.219Z,59.08
2017-03-08T16:42:02.001Z,59.56
2017-03-08T16:42:42.759Z,59.37
2017-03-08T16:43:23.556Z,59.66
2017-03-08T16:44:04.338Z,59.47
2017-03-08T16:44:45.070Z,59.17
2017-03-08T16:45:25.707Z,58.98
2017-03-08T16:46:06.435Z,58.98
2017-03-08T16:46:47.130Z,59.47
2017-03-08T16:47:27.897Z,59.37
2017-03-08T16:48:08.637Z,58.89
2017-03-08T16:48:49.383Z,59.08
2017-03-08T16:49:30.201Z,59.08
2017-03-08T16:50:10.875Z,59.17
2017-03-08T16:50:51.655Z,59.08
2017-03-08T16:51:32.404Z,58.7
2017-03-08T16:52:13.162Z,58.89
2017-03-08T16:52:53.966Z,58.7
2017-03-08T16:53:34.748Z,58.4
2017-03-08T16:54:15.555Z,58.6
2017-03-08T16:54:56.980Z,58.22
2017-03-08T16:55:37.656Z,57.83
2017-03-08T16:56:18.425Z,58.02
2017-03-08T16:56:59.177Z,57.64
2017-03-08T16:57:39.954Z,58.02
2017-03-08T16:58:20.722Z,58.5
2017-03-08T16:59:01.499Z,58.31
2017-03-08T16:59:42.283Z,57.73
2017-03-08T17:00:23.542Z,57.83
2017-03-08T17:01:04.287Z,58.02
2017-03-08T17:01:44.985Z,58.89
2017-03-08T17:02:25.815Z,58.79
2017-03-08T17:03:06.579Z,58.79
2017-03-08T17:03:47.297Z,58.18
2017-03-08T17:04:28.063Z,57.92
2017-03-08T17:05:08.889Z,57.73
2017-03-08T17:05:49.661Z,57.92
2017-03-08T17:06:30.483Z,57.83
2017-03-08T17:07:11.357Z,58.12
2017-03-08T17:07:52.111Z,58.79
2017-03-08T17:08:32.859Z,58.79
2017-03-08T17:09:13.582Z,58.12
2017-03-08T17:09:54.342Z,58.31
2017-03-08T17:10:35.037Z,58.02
2017-03-08T17:11:15.784Z,58.31
2017-03-08T17:11:56.471Z,57.64
2017-03-08T17:12:37.250Z,57.92
2017-03-08T17:13:18.011Z,58.4
2017-03-08T17:13:58.710Z,58.5
2017-03-08T17:14:39.530Z,58.5
2017-03-08T17:15:20.213Z,58.6
2017-03-08T17:16:00.944Z,58.67
2017-03-08T17:16:41.644Z,58.6
2017-03-08T17:17:22.435Z,58.79
2017-03-08T17:18:03.168Z,58.79
2017-03-08T17:18:43.944Z,58.5
2017-03-08T17:19:24.675Z,58.7
2017-03-08T17:24:36.972Z,58.7
2017-03-08T17:28:22.555Z,58.98
2017-03-08T17:29:03.307Z,59.27
2017-03-08T17:29:44.111Z,58.98
2017-03-08T17:30:24.905Z,59.27
2017-03-08T17:35:54.593Z,59.17
2017-03-08T17:40:57.184Z,58.4
2017-03-08T17:41:38.890Z,58.67
2017-03-08T17:42:19.589Z,58.6
2017-03-08T17:43:00.333Z,58.6
2017-03-08T17:43:41.122Z,58.76
2017-03-08T17:44:21.913Z,58.31
2017-03-08T17:45:02.688Z,58.6
2017-03-08T17:45:43.452Z,58.67
2017-03-08T17:46:24.205Z,58.47
2017-03-08T17:47:05.035Z,58.7
2017-03-08T17:47:45.886Z,58.37
2017-03-08T17:48:26.617Z,58.47
2017-03-08T17:49:07.715Z,58.67
2017-03-08T17:49:48.498Z,58.67
2017-03-08T17:50:29.253Z,58.37
2017-03-08T17:51:10.002Z,58.89
2017-03-08T17:51:50.677Z,59.34
2017-03-08T17:52:31.461Z,59.34
2017-03-08T17:53:12.263Z,59.15
2017-03-08T17:53:53.061Z,58.95
2017-03-08T17:54:33.825Z,59.34
2017-03-08T17:55:14.583Z,59.24
2017-03-08T17:55:55.397Z,59.34
2017-03-08T17:56:36.140Z,59.15
2017-03-08T17:57:16.826Z,59.05
2017-03-08T17:57:57.585Z,58.95
2017-03-08T17:58:38.409Z,59.05
2017-03-08T17:59:19.190Z,59.15
2017-03-08T17:59:59.980Z,59.15
2017-03-08T18:00:40.751Z,59.24
2017-03-08T18:01:22.069Z,58.98
2017-03-08T18:02:02.294Z,59.47
2017-03-08T18:02:43.061Z,59.63
2017-03-08T18:03:23.779Z,60.14
2017-03-08T18:04:04.495Z,59.24
2017-03-08T18:04:45.251Z,59.75
2017-03-08T18:05:25.981Z,59.72
2017-03-08T18:06:06.761Z,59.75
2017-03-08T18:06:47.564Z,60.24
2017-03-08T18:07:28.287Z,60.11
2017-03-08T18:08:09.104Z,60.11
2017-03-08T18:08:49.949Z,59.92
2017-03-08T18:09:30.789Z,59.53
2017-03-08T18:10:14.094Z,59.63
2017-03-08T18:10:54.877Z,60.01
2017-03-08T18:11:35.652Z,59.82
2017-03-08T18:12:16.432Z,60.04
2017-03-08T18:12:57.180Z,60.04
2017-03-08T18:13:38.001Z,60.11
2017-03-08T18:14:18.776Z,60.62
2017-03-08T18:14:59.653Z,60.59
2017-03-08T18:15:40.415Z,60.42
2017-03-08T18:16:21.148Z,60.39
2017-03-08T18:17:02.044Z,60.21
2017-03-08T18:17:42.799Z,60.24
2017-03-08T18:18:23.510Z,60.39
2017-03-08T18:19:04.238Z,60.81
2017-03-08T18:19:45.003Z,60.78
2017-03-08T18:20:25.731Z,60.59
2017-03-08T18:21:06.612Z,60.62
2017-03-08T18:21:47.393Z,60.88
2017-03-08T18:22:28.147Z,60.59
2017-03-08T18:23:08.961Z,60.97
2017-03-08T18:23:49.665Z,60.88
2017-03-08T18:24:30.485Z,60.88
2017-03-08T18:25:11.254Z,61.1
2017-03-08T18:25:52.055Z,60.97
2017-03-08T18:26:32.727Z,61.29
2017-03-08T18:27:13.514Z,60.97
2017-03-08T18:27:54.221Z,61.74
2017-03-08T18:28:34.999Z,61.74
2017-03-08T18:29:15.830Z,61.77
2017-03-08T18:29:56.669Z,61.46
2017-03-08T18:30:37.415Z,61.65
2017-03-08T18:31:18.109Z,61.36
2017-03-08T18:31:58.948Z,61.26
2017-03-08T18:32:39.674Z,61.74
2017-03-08T18:33:20.399Z,61.65
2017-03-08T18:34:01.186Z,61.74
2017-03-08T18:34:41.929Z,61.84
2017-03-08T18:35:22.731Z,62.13
2017-03-08T18:36:03.512Z,62.03
2017-03-08T18:36:44.210Z,62.13
2017-03-08T18:37:24.913Z,62.13
2017-03-08T18:38:05.690Z,61.84
2017-03-08T18:38:46.396Z,61.94
2017-03-08T18:39:27.185Z,62.32
2017-03-08T18:40:10.551Z,62.41
2017-03-08T18:40:51.380Z,62.41
2017-03-08T18:41:32.186Z,62.23
2017-03-08T18:42:12.912Z,62.41
2017-03-08T18:42:53.708Z,62.41
2017-03-08T18:43:34.476Z,62.32
2017-03-08T18:44:15.266Z,62.32
2017-03-08T18:44:56.015Z,62.32
2017-03-08T18:45:36.790Z,62.41
2017-03-08T18:46:17.572Z,62.32
2017-03-08T18:46:58.326Z,62.32
2017-03-08T18:47:39.036Z,62.41
2017-03-08T18:48:19.846Z,62.03
2017-03-08T18:49:00.739Z,62.03
2017-03-08T18:49:41.410Z,62.32
2017-03-08T18:50:22.252Z,62.32
2017-03-08T18:51:02.971Z,62.23
2017-03-08T18:51:43.847Z,62.23
2017-03-08T18:52:24.662Z,62.41
2017-03-08T18:53:05.449Z,62.51
2017-03-08T18:53:46.493Z,62.41
2017-03-08T18:54:27.474Z,62.99
2017-03-08T18:55:08.551Z,62.61
2017-03-08T18:55:49.307Z,62.61
2017-03-08T18:56:30.221Z,62.9
2017-03-08T18:57:11.008Z,62.61
2017-03-08T18:57:51.768Z,62.41
2017-03-08T18:58:32.550Z,62.8
2017-03-08T18:59:13.338Z,62.9
2017-03-08T18:59:54.137Z,62.71
2017-03-08T19:00:34.907Z,63.28
2017-03-08T19:01:15.758Z,63.18
2017-03-08T19:01:56.480Z,62.99
2017-03-08T19:02:37.265Z,63.28
2017-03-08T19:03:18.030Z,62.9
2017-03-08T19:03:58.806Z,63.09
2017-03-08T19:04:39.553Z,63.38
2017-03-08T19:05:20.261Z,62.99
2017-03-08T19:06:01.097Z,63.09
2017-03-08T19:06:41.805Z,62.99
2017-03-08T19:07:22.544Z,63.18
2017-03-08T19:08:03.321Z,63.09
2017-03-08T19:08:44.123Z,63.09
2017-03-08T19:09:24.885Z,63.09
2017-03-08T19:10:05.674Z,62.99
2017-03-08T19:10:46.457Z,63.48
2017-03-08T19:11:27.298Z,63.48
2017-03-08T19:12:08.086Z,63.48
2017-03-08T19:12:48.786Z,63.57
2017-03-08T19:13:29.627Z,63.48
2017-03-08T19:14:10.351Z,63.18
2017-03-08T19:14:51.151Z,63.28
2017-03-08T19:15:31.911Z,63.28
2017-03-08T19:16:12.772Z,63.38
2017-03-08T19:16:53.549Z,63.09
2017-03-08T19:17:34.290Z,63.48
2017-03-08T19:18:14.991Z,63.38
2017-03-08T19:18:55.857Z,62.9
2017-03-08T19:19:36.633Z,63.28
2017-03-08T19:20:17.399Z,63.38
2017-03-08T19:20:58.152Z,63.86
2017-03-08T19:21:38.896Z,63.18
2017-03-08T19:22:19.611Z,63.28
2017-03-08T19:23:00.397Z,63.09
2017-03-08T19:23:41.239Z,63.48
2017-03-08T19:24:21.981Z,63.38
2017-03-08T19:25:02.707Z,63.76
2017-03-08T19:25:43.438Z,63.76
2017-03-08T19:26:24.213Z,63.48
2017-03-08T19:27:04.974Z,63.57
2017-03-08T19:27:46.418Z,63.67
2017-03-08T19:28:49.285Z,63.57
2017-03-08T19:29:31.105Z,63.76
2017-03-08T19:30:11.852Z,63.28
2017-03-08T19:30:52.571Z,63.57
2017-03-08T19:31:33.312Z,63.76
2017-03-08T19:32:14.078Z,63.67
2017-03-08T19:32:54.868Z,63.57
2017-03-08T19:33:35.685Z,63.76
2017-03-08T19:34:16.528Z,63.57
2017-03-08T19:34:57.354Z,63.67
2017-03-08T19:35:38.112Z,63.76
2017-03-08T19:36:18.807Z,63.67
2017-03-08T19:36:59.579Z,63.76
2017-03-08T19:37:40.319Z,63.57
2017-03-08T19:38:21.663Z,63.76
2017-03-08T19:39:02.425Z,63.57
2017-03-08T19:39:43.616Z,64.15
2017-03-08T19:41:34.212Z,63.67
2017-03-08T19:42:16.077Z,63.86
2017-03-08T19:42:56.839Z,63.86
2017-03-08T19:43:37.714Z,63.67
2017-03-08T19:44:18.504Z,63.95
2017-03-08T19:44:59.217Z,64.15
2017-03-08T19:45:39.991Z,63.95
2017-03-08T19:46:20.666Z,63.95
2017-03-08T19:47:01.405Z,63.95
2017-03-08T19:47:42.171Z,63.95
2017-03-08T19:48:22.960Z,64.34
2017-03-08T19:49:03.820Z,64.34
2017-03-08T19:49:44.541Z,64.82
2017-03-08T19:50:25.478Z,64.82
2017-03-08T19:51:06.317Z,64.63
2017-03-08T19:51:47.194Z,64.73
2017-03-08T19:52:27.953Z,64.82
2017-03-08T19:53:08.712Z,64.43
2017-03-08T19:53:50.414Z,64.53
2017-03-08T19:54:32.655Z,64.34
2017-03-08T19:55:13.486Z,64.25
2017-03-08T19:55:54.180Z,64.43